Strona główna
METAR-TAF:

METAR-TAF

Lotnisko :

Pottstown Limerick Airport

Pottstown, Pensylwania, Stany Zjednoczone

Szerokość geograficzna: 40-14-18N, Długość geograficzna: 075-33-26W, wysokość: 89 m

Aktualna obserwacja pogody

Raport powstał 8 minut temu, godzina 01:54 UTC
Wiatr 3 kt od południowy zachód
Temperatura 14°C
Wilgotność 63%
Ciśnienie 1016 hPa
Widzialność: 16.1 km
bezchmurnie

METAR: KPTW 060154Z AUTO 22003KT 10SM CLR 14/07 A3001 RMK AO2 SLP159 T01390072

czas: 22:02 (02:02 UTC)


TAF: brakujący

Obserwacja i prognoza pogody dla ponad 4000 lotnisk (raport METAR i TAF).

Dostępne stacje oznaczono żółtymi i czerwonymi punktami na mapie.

Najedź kursorem aby zobaczyć nazwę stacji.

Kliknij aby zobaczyć obserwacje i prognozy pogody.

Aby zmienić mapę: kliknij na zielony przycisk z czarnym krzyżykiem, aby powiększyć; na zielony przycisk z myślnikiem, aby pomniejszyć; na zielone strzałki, aby przejść do map sąsiednich.


METAR-TAF: